createdAt,value
2017-05-26T00:01:22.651Z,5.85
2017-05-26T00:03:51.149Z,8.92
2017-05-26T00:06:19.698Z,6.15
2017-05-26T00:08:48.199Z,6.27
2017-05-26T00:11:16.704Z,8.53
2017-05-26T00:13:46.318Z,7.17
2017-05-26T00:16:14.816Z,7.07
2017-05-26T00:18:43.377Z,7.82
2017-05-26T00:21:11.920Z,6.62
2017-05-26T00:23:40.421Z,10.47
2017-05-26T00:26:08.920Z,7.15
2017-05-26T00:28:37.469Z,7.85
2017-05-26T00:31:05.962Z,7.38
2017-05-26T00:33:34.464Z,9.98
2017-05-26T00:36:03.004Z,9.53
2017-05-26T00:38:31.504Z,9.42
2017-05-26T00:41:00.016Z,10.23
2017-05-26T00:43:27.799Z,10.58
2017-05-26T00:45:56.303Z,12.78
2017-05-26T00:48:24.823Z,11.15
2017-05-26T00:50:53.357Z,9.85
2017-05-26T00:53:21.861Z,10.85
2017-05-26T00:55:50.362Z,10.07
2017-05-26T00:58:18.978Z,11.00
2017-05-26T01:00:47.479Z,13.45
2017-05-26T01:03:16.002Z,14.48
2017-05-26T01:05:44.625Z,14.68
2017-05-26T01:08:13.152Z,13.85
2017-05-26T01:10:41.661Z,12.90
2017-05-26T01:13:10.237Z,14.88
2017-05-26T01:15:38.739Z,17.48
2017-05-26T01:18:07.245Z,12.55
2017-05-26T01:20:35.823Z,16.45
2017-05-26T01:23:04.329Z,15.93
2017-05-26T01:25:32.828Z,17.25
2017-05-26T01:28:01.398Z,15.45
2017-05-26T01:30:29.912Z,14.77
2017-05-26T01:32:58.499Z,16.52
2017-05-26T01:35:27.078Z,19.70
2017-05-26T01:37:55.696Z,21.75
2017-05-26T01:40:25.228Z,17.65
2017-05-26T01:42:53.788Z,20.42
2017-05-26T01:45:22.327Z,23.47
2017-05-26T01:47:50.834Z,19.37
2017-05-26T01:50:19.393Z,16.53
2017-05-26T01:52:47.920Z,17.37
2017-05-26T01:55:16.427Z,24.05
2017-05-26T01:57:44.979Z,24.18
2017-05-26T02:00:13.487Z,21.87
2017-05-26T02:02:41.992Z,16.47
2017-05-26T02:05:10.539Z,19.70
2017-05-26T02:07:39.045Z,18.63
2017-05-26T02:10:07.573Z,17.02
2017-05-26T02:12:36.121Z,22.33
2017-05-26T02:15:04.626Z,19.77
2017-05-26T02:17:33.133Z,18.48
2017-05-26T02:20:01.679Z,18.08
2017-05-26T02:22:30.184Z,23.45
2017-05-26T02:24:58.693Z,21.00
2017-05-26T02:27:27.261Z,18.12
2017-05-26T02:29:55.768Z,18.35
2017-05-26T02:32:24.277Z,19.67
2017-05-26T02:34:52.844Z,15.40
2017-05-26T02:37:21.352Z,18.55
2017-05-26T02:39:49.861Z,14.47
2017-05-26T02:42:18.437Z,21.05
2017-05-26T02:44:46.947Z,21.47
2017-05-26T02:47:15.455Z,15.37
2017-05-26T02:49:44.019Z,14.45
2017-05-26T02:52:12.539Z,14.80
2017-05-26T02:54:41.043Z,12.35
2017-05-26T02:57:09.607Z,12.62
2017-05-26T02:59:38.119Z,12.85
2017-05-26T03:02:06.622Z,10.02
2017-05-26T03:04:35.187Z,11.45
2017-05-26T03:07:03.701Z,12.23
2017-05-26T03:09:32.205Z,10.75
2017-05-26T03:12:00.740Z,11.57
2017-05-26T03:14:29.301Z,18.98
2017-05-26T03:16:57.810Z,13.43
2017-05-26T03:19:26.314Z,14.47
2017-05-26T03:21:54.854Z,15.60
2017-05-26T03:24:23.361Z,13.93
2017-05-26T03:26:51.933Z,13.97
2017-05-26T03:29:20.436Z,14.27
2017-05-26T03:31:48.941Z,11.15
2017-05-26T03:34:17.484Z,11.25
2017-05-26T03:36:45.999Z,11.50
2017-05-26T03:39:14.575Z,11.33
2017-05-26T03:41:43.081Z,12.57
2017-05-26T03:44:11.600Z,11.25
2017-05-26T03:46:40.180Z,12.60
2017-05-26T03:49:08.709Z,13.90
2017-05-26T03:51:37.223Z,12.87
2017-05-26T03:54:05.771Z,13.17
2017-05-26T03:56:34.276Z,12.83
2017-05-26T03:59:02.858Z,10.55
2017-05-26T04:01:31.363Z,12.12
2017-05-26T04:03:59.869Z,10.93
2017-05-26T04:06:28.420Z,8.62
2017-05-26T04:08:56.944Z,9.23
2017-05-26T04:11:25.484Z,11.77
2017-05-26T04:13:53.997Z,10.70
2017-05-26T04:16:22.561Z,10.42
2017-05-26T04:18:51.064Z,10.77
2017-05-26T04:21:19.566Z,9.62
2017-05-26T04:23:48.109Z,9.80
2017-05-26T04:26:16.607Z,9.00
2017-05-26T04:28:45.167Z,8.82
2017-05-26T04:31:13.682Z,10.65
2017-05-26T04:33:42.189Z,9.97
2017-05-26T04:36:10.727Z,10.67
2017-05-26T04:38:39.231Z,8.47
2017-05-26T04:41:07.803Z,9.12
2017-05-26T04:43:36.305Z,9.22
2017-05-26T04:46:04.824Z,12.80
2017-05-26T04:48:33.371Z,16.55
2017-05-26T04:51:01.885Z,11.33
2017-05-26T04:53:30.460Z,17.63
2017-05-26T04:55:58.968Z,17.48
2017-05-26T04:58:27.484Z,15.42
2017-05-26T05:00:56.016Z,11.05
2017-05-26T05:03:24.520Z,12.10
2017-05-26T05:05:53.084Z,9.20
2017-05-26T05:08:21.586Z,8.03
2017-05-26T05:10:50.149Z,8.05
2017-05-26T05:13:18.686Z,10.08
2017-05-26T05:15:47.187Z,10.30
2017-05-26T05:18:15.746Z,8.03
2017-05-26T05:20:44.249Z,8.70
2017-05-26T05:23:12.752Z,7.98
2017-05-26T05:25:41.275Z,6.65
2017-05-26T05:28:09.785Z,7.05
2017-05-26T05:30:38.340Z,7.05
2017-05-26T05:33:06.838Z,9.38
2017-05-26T05:35:35.351Z,7.90
2017-05-26T05:38:03.887Z,12.85
2017-05-26T05:40:32.391Z,7.52
2017-05-26T05:43:00.968Z,9.45
2017-05-26T05:45:29.479Z,11.22
2017-05-26T05:47:57.988Z,7.30
2017-05-26T05:50:26.517Z,7.28
2017-05-26T05:52:55.021Z,7.97
2017-05-26T05:55:23.604Z,8.00
2017-05-26T05:57:52.112Z,7.22
2017-05-26T06:00:20.619Z,8.18
2017-05-26T06:02:49.182Z,8.47
2017-05-26T06:05:17.683Z,13.34
2017-05-26T06:07:46.227Z,9.20
2017-05-26T06:10:14.732Z,9.32
2017-05-26T06:12:43.294Z,11.08
2017-05-26T06:15:11.836Z,14.92
2017-05-26T06:17:40.344Z,9.88
2017-05-26T06:20:08.891Z,8.22
2017-05-26T06:22:37.390Z,7.18
2017-05-26T06:25:05.891Z,9.92
2017-05-26T06:27:34.428Z,12.62
2017-05-26T06:30:02.935Z,8.22
2017-05-26T06:32:31.480Z,8.74
2017-05-26T06:35:00.005Z,8.42
2017-05-26T06:37:28.505Z,6.82
2017-05-26T06:39:57.038Z,8.14
2017-05-26T06:42:25.538Z,7.12
2017-05-26T06:44:54.087Z,9.28
2017-05-26T06:47:22.588Z,7.90
2017-05-26T06:49:51.085Z,8.88
2017-05-26T06:52:19.611Z,8.60
2017-05-26T06:54:48.122Z,9.26
2017-05-26T06:57:16.660Z,7.10
2017-05-26T06:59:45.192Z,14.10
2017-05-26T07:02:13.703Z,9.08
2017-05-26T07:04:42.250Z,8.02
2017-05-26T07:07:10.762Z,16.18
2017-05-26T07:09:39.333Z,7.52
2017-05-26T07:12:07.837Z,8.74
2017-05-26T07:14:36.443Z,8.42
2017-05-26T07:17:04.971Z,8.82
2017-05-26T07:19:33.475Z,9.84
2017-05-26T07:22:02.011Z,8.40
2017-05-26T07:24:30.517Z,7.18
2017-05-26T07:26:59.021Z,6.82
2017-05-26T07:29:27.555Z,7.72
2017-05-26T07:31:56.056Z,7.88
2017-05-26T07:34:24.600Z,7.08
2017-05-26T07:36:53.108Z,9.46
2017-05-26T07:39:21.607Z,6.96
2017-05-26T07:41:50.139Z,6.08
2017-05-26T07:44:18.672Z,11.68
2017-05-26T07:46:47.216Z,10.20
2017-05-26T07:49:15.721Z,6.58
2017-05-26T07:51:44.217Z,8.12
2017-05-26T07:54:12.758Z,6.57
2017-05-26T07:56:41.263Z,6.70
2017-05-26T07:59:09.798Z,7.74
2017-05-26T08:01:38.305Z,8.92
2017-05-26T08:04:06.807Z,9.18
2017-05-26T08:06:35.335Z,8.04
2017-05-26T08:09:03.863Z,3.88
2017-05-26T08:11:32.404Z,4.02
2017-05-26T08:14:00.908Z,4.48
2017-05-26T08:16:29.480Z,7.80
2017-05-26T08:18:58.025Z,6.40
2017-05-26T08:21:26.532Z,4.88
2017-05-26T08:23:55.081Z,5.08
2017-05-26T08:26:23.592Z,4.12
2017-05-26T08:28:52.096Z,4.54
2017-05-26T08:31:20.633Z,2.96
2017-05-26T08:33:49.144Z,7.18
2017-05-26T08:36:17.694Z,3.42
2017-05-26T08:38:46.210Z,3.28
2017-05-26T08:41:14.717Z,3.30
2017-05-26T08:43:43.252Z,4.44
2017-05-26T08:46:11.757Z,3.98
2017-05-26T08:48:40.301Z,3.58
2017-05-26T08:51:08.803Z,6.46
2017-05-26T08:53:37.304Z,4.66
2017-05-26T08:56:05.832Z,7.28
2017-05-26T08:58:34.335Z,3.92
2017-05-26T09:01:02.871Z,2.60
2017-05-26T09:03:31.373Z,6.86
2017-05-26T09:05:59.876Z,3.68
2017-05-26T09:08:28.412Z,6.38
2017-05-26T09:10:56.914Z,4.00
2017-05-26T09:13:25.459Z,4.93
2017-05-26T09:15:53.963Z,3.78
2017-05-26T09:18:22.523Z,2.88
2017-05-26T09:20:51.057Z,4.45
2017-05-26T09:23:19.565Z,4.48
2017-05-26T09:25:48.109Z,5.12
2017-05-26T09:28:16.607Z,6.30
2017-05-26T09:30:45.108Z,3.28
2017-05-26T09:33:13.640Z,3.83
2017-05-26T09:35:42.172Z,7.65
2017-05-26T09:38:10.728Z,3.02
2017-05-26T09:40:39.225Z,2.87
2017-05-26T09:43:07.731Z,4.58
2017-05-26T09:45:36.256Z,5.32
2017-05-26T09:48:04.761Z,6.27
2017-05-26T09:50:33.292Z,3.73
2017-05-26T09:53:01.787Z,6.13
2017-05-26T09:55:30.289Z,3.13
2017-05-26T09:57:58.822Z,5.52
2017-05-26T10:00:27.320Z,4.88
2017-05-26T10:02:55.860Z,4.87
2017-05-26T10:05:24.355Z,3.00
2017-05-26T10:07:52.855Z,4.87
2017-05-26T10:10:21.385Z,4.55
2017-05-26T10:12:49.888Z,4.58
2017-05-26T10:15:18.430Z,4.88
2017-05-26T10:17:46.945Z,3.58
2017-05-26T10:20:15.499Z,5.60
2017-05-26T10:22:44.032Z,3.27
2017-05-26T10:25:12.523Z,3.72
2017-05-26T10:27:41.062Z,5.22
2017-05-26T10:30:09.568Z,5.65
2017-05-26T10:32:38.098Z,3.85
2017-05-26T10:35:06.632Z,2.68
2017-05-26T10:37:35.137Z,3.97
2017-05-26T10:40:03.680Z,3.60
2017-05-26T10:42:32.185Z,3.67
2017-05-26T10:45:00.688Z,4.68
2017-05-26T10:47:29.233Z,4.02
2017-05-26T10:49:57.740Z,5.18
2017-05-26T10:52:26.284Z,3.92
2017-05-26T10:54:54.783Z,2.55
2017-05-26T10:57:23.285Z,3.62
2017-05-26T10:59:51.816Z,3.58
2017-05-26T11:02:20.316Z,3.73
2017-05-26T11:04:48.851Z,5.07
2017-05-26T11:07:17.353Z,2.77
2017-05-26T11:09:45.851Z,2.90
2017-05-26T11:12:14.395Z,2.87
2017-05-26T11:14:42.896Z,3.15
2017-05-26T11:17:11.395Z,4.45
2017-05-26T11:19:39.922Z,5.47
2017-05-26T11:22:08.422Z,4.82
2017-05-26T11:24:36.926Z,5.23
2017-05-26T11:27:05.456Z,5.53
2017-05-26T11:29:33.965Z,2.95
2017-05-26T11:32:02.465Z,3.25
2017-05-26T11:34:30.997Z,4.77
2017-05-26T11:36:58.736Z,2.98
2017-05-26T11:39:27.236Z,2.90
2017-05-26T11:41:55.765Z,3.35
2017-05-26T11:44:24.261Z,3.15
2017-05-26T11:46:52.765Z,2.43
2017-05-26T11:49:21.300Z,2.70
2017-05-26T11:51:49.808Z,15.03
2017-05-26T11:54:18.315Z,3.93
2017-05-26T11:56:46.843Z,5.58
2017-05-26T11:59:15.345Z,4.00
2017-05-26T12:01:43.848Z,2.85
2017-05-26T12:04:12.385Z,2.80
2017-05-26T12:06:40.880Z,3.27
2017-05-26T12:09:09.379Z,3.65
2017-05-26T12:11:37.915Z,2.97
2017-05-26T12:14:06.417Z,4.70
2017-05-26T12:16:34.956Z,2.72
2017-05-26T12:19:03.484Z,4.02
2017-05-26T12:21:31.993Z,3.57
2017-05-26T12:24:00.521Z,3.93
2017-05-26T12:26:29.032Z,2.95
2017-05-26T12:28:56.768Z,3.03
2017-05-26T12:31:25.291Z,3.50
2017-05-26T12:33:53.787Z,2.50
2017-05-26T12:36:22.322Z,3.20
2017-05-26T12:38:50.832Z,4.45
2017-05-26T12:41:19.333Z,2.72
2017-05-26T12:43:47.859Z,2.42
2017-05-26T12:46:16.360Z,2.05
2017-05-26T12:48:44.921Z,3.75
2017-05-26T12:51:13.419Z,3.22
2017-05-26T12:53:41.917Z,3.52
2017-05-26T12:56:10.445Z,2.75
2017-05-26T12:58:38.948Z,5.75
2017-05-26T13:01:07.491Z,3.85
2017-05-26T13:03:35.991Z,6.12
2017-05-26T13:06:04.495Z,2.72
2017-05-26T13:08:33.034Z,4.98
2017-05-26T13:11:01.542Z,3.43
2017-05-26T13:13:30.083Z,3.80
2017-05-26T13:15:58.592Z,4.27
2017-05-26T13:18:27.096Z,4.08
2017-05-26T13:20:55.628Z,4.57
2017-05-26T13:23:24.132Z,4.33
2017-05-26T13:25:52.663Z,3.72
2017-05-26T13:28:21.177Z,4.92
2017-05-26T13:30:49.683Z,2.92
2017-05-26T13:33:18.209Z,2.95
2017-05-26T13:35:46.720Z,6.98
2017-05-26T13:38:15.267Z,4.43
2017-05-26T13:40:43.769Z,4.78
2017-05-26T13:43:12.269Z,5.63
2017-05-26T13:45:40.816Z,4.50
2017-05-26T13:48:09.323Z,3.80
2017-05-26T13:50:37.859Z,5.32
2017-05-26T13:53:06.355Z,3.88
2017-05-26T13:55:34.861Z,2.75
2017-05-26T13:58:02.624Z,4.93
2017-05-26T14:00:31.130Z,3.12
2017-05-26T14:02:59.679Z,5.68
2017-05-26T14:05:28.188Z,4.43
2017-05-26T14:07:56.692Z,3.95
2017-05-26T14:10:25.219Z,5.27
2017-05-26T14:12:53.720Z,5.60
2017-05-26T14:15:22.265Z,6.73
2017-05-26T14:17:50.761Z,2.92
2017-05-26T14:20:19.265Z,4.10
2017-05-26T14:22:47.793Z,3.80
2017-05-26T14:25:16.299Z,4.18
2017-05-26T14:27:44.848Z,4.38
2017-05-26T14:30:13.352Z,6.62
2017-05-26T14:32:41.847Z,5.35
2017-05-26T14:35:10.379Z,5.67
2017-05-26T14:37:38.876Z,3.73
2017-05-26T14:40:07.419Z,4.43
2017-05-26T14:42:35.920Z,6.52
2017-05-26T14:45:04.417Z,5.00
2017-05-26T14:47:32.952Z,9.80
2017-05-26T14:50:01.469Z,3.70
2017-05-26T14:52:30.012Z,3.93
2017-05-26T14:54:58.521Z,3.65
2017-05-26T14:57:27.025Z,3.88
2017-05-26T14:59:55.556Z,4.50
2017-05-26T15:02:24.069Z,6.93
2017-05-26T15:04:52.603Z,3.48
2017-05-26T15:07:21.111Z,4.58
2017-05-26T15:09:49.616Z,3.43
2017-05-26T15:12:18.145Z,2.95
2017-05-26T15:14:46.640Z,3.43
2017-05-26T15:17:15.176Z,2.98
2017-05-26T15:19:43.684Z,3.57
2017-05-26T15:22:12.184Z,4.13
2017-05-26T15:24:40.712Z,2.78
2017-05-26T15:27:09.212Z,5.75
2017-05-26T15:29:37.748Z,3.83
2017-05-26T15:32:06.298Z,3.23
2017-05-26T15:34:34.799Z,3.30
2017-05-26T15:37:03.332Z,4.57
2017-05-26T15:39:31.832Z,3.87
2017-05-26T15:42:01.296Z,3.62
2017-05-26T15:44:29.795Z,4.42
2017-05-26T15:46:58.292Z,4.82
2017-05-26T15:49:26.819Z,4.78
2017-05-26T15:51:55.312Z,5.47
2017-05-26T15:54:23.859Z,5.25
2017-05-26T15:56:52.382Z,4.52
2017-05-26T15:59:20.892Z,3.40
2017-05-26T16:01:50.141Z,5.87
2017-05-26T16:04:18.678Z,13.28
2017-05-26T16:06:47.223Z,4.05
2017-05-26T16:09:15.729Z,4.50
2017-05-26T16:11:44.228Z,4.82
2017-05-26T16:14:12.764Z,4.45
2017-05-26T16:16:41.321Z,4.18
2017-05-26T16:19:09.946Z,3.10
2017-05-26T16:21:38.461Z,3.82
2017-05-26T16:24:06.964Z,5.57
2017-05-26T16:26:35.504Z,3.87
2017-05-26T16:29:04.001Z,4.05
2017-05-26T16:31:32.535Z,5.03
2017-05-26T16:34:01.042Z,4.63
2017-05-26T16:36:29.539Z,4.65
2017-05-26T16:38:58.076Z,4.47
2017-05-26T16:41:26.578Z,3.50
2017-05-26T16:43:55.114Z,3.22
2017-05-26T16:46:23.660Z,3.45
2017-05-26T16:48:52.163Z,3.08
2017-05-26T16:51:20.693Z,7.12
2017-05-26T16:53:49.217Z,4.10
2017-05-26T16:56:17.779Z,3.42
2017-05-26T16:58:46.284Z,3.90
2017-05-26T17:01:15.814Z,3.93
2017-05-26T17:03:44.356Z,5.25
2017-05-26T17:06:12.861Z,6.60
2017-05-26T17:08:41.383Z,4.33
2017-05-26T17:11:09.883Z,3.78
2017-05-26T17:13:38.415Z,4.37
2017-05-26T17:16:06.931Z,4.40
2017-05-26T17:18:35.471Z,4.58
2017-05-26T17:21:03.976Z,4.33
2017-05-26T17:23:32.485Z,4.33
2017-05-26T17:26:01.015Z,4.50
2017-05-26T17:28:29.511Z,4.47
2017-05-26T17:30:58.051Z,4.95
2017-05-26T17:33:26.551Z,6.12
2017-05-26T17:35:55.058Z,5.10
2017-05-26T17:38:23.588Z,5.37
2017-05-26T17:40:53.020Z,6.30
2017-05-26T17:43:21.589Z,6.25
2017-05-26T17:45:50.108Z,6.67
2017-05-26T17:48:18.611Z,6.73
2017-05-26T17:50:47.143Z,6.18
2017-05-26T17:53:15.644Z,6.83
2017-05-26T17:55:44.186Z,7.35
2017-05-26T17:58:12.691Z,6.50
2017-05-26T18:00:41.192Z,10.47
2017-05-26T18:03:09.791Z,8.77
2017-05-26T18:05:38.296Z,6.85
2017-05-26T18:08:06.839Z,6.98
2017-05-26T18:10:35.340Z,7.48
2017-05-26T18:13:03.845Z,6.53
2017-05-26T18:15:32.379Z,6.68
2017-05-26T18:18:00.883Z,6.93
2017-05-26T18:20:29.426Z,5.57
2017-05-26T18:22:57.927Z,6.40
2017-05-26T18:25:26.431Z,7.10
2017-05-26T18:27:54.967Z,9.10
2017-05-26T18:30:23.468Z,4.98
2017-05-26T18:32:52.013Z,7.28
2017-05-26T18:35:20.520Z,7.18
2017-05-26T18:37:49.024Z,7.17
2017-05-26T18:40:17.576Z,7.90
2017-05-26T18:42:46.075Z,8.12
2017-05-26T18:45:14.616Z,7.88
2017-05-26T18:47:43.120Z,8.13
2017-05-26T18:50:11.614Z,8.37
2017-05-26T18:52:40.142Z,6.38
2017-05-26T18:55:08.643Z,7.98
2017-05-26T18:57:37.188Z,9.42
2017-05-26T19:00:05.686Z,7.82
2017-05-26T19:02:34.641Z,6.30
2017-05-26T19:05:03.171Z,6.28
2017-05-26T19:07:31.673Z,11.08
2017-05-26T19:10:00.212Z,7.00
2017-05-26T19:12:28.816Z,7.75
2017-05-26T19:14:57.353Z,6.97
2017-05-26T19:17:25.892Z,8.35
2017-05-26T19:19:54.402Z,7.88
2017-05-26T19:22:22.950Z,11.53
2017-05-26T19:24:51.554Z,8.07
2017-05-26T19:27:20.080Z,8.17
2017-05-26T19:29:48.622Z,9.27
2017-05-26T19:32:17.128Z,9.02
2017-05-26T19:34:45.687Z,8.53
2017-05-26T19:37:14.195Z,8.32
2017-05-26T19:39:42.698Z,9.92
2017-05-26T19:42:11.273Z,9.43
2017-05-26T19:44:39.776Z,11.12
2017-05-26T19:47:08.364Z,13.07
2017-05-26T19:49:36.868Z,7.43
2017-05-26T19:52:05.366Z,8.23
2017-05-26T19:54:33.905Z,7.50
2017-05-26T19:57:02.472Z,7.17
2017-05-26T19:59:31.018Z,8.62
2017-05-26T20:01:59.516Z,7.50
2017-05-26T20:04:28.017Z,7.08
2017-05-26T20:06:56.546Z,7.72
2017-05-26T20:09:25.049Z,7.40
2017-05-26T20:11:53.592Z,7.68
2017-05-26T20:14:22.105Z,9.48
2017-05-26T20:16:50.739Z,7.28
2017-05-26T20:19:19.278Z,8.50
2017-05-26T20:21:47.792Z,7.98
2017-05-26T20:24:16.343Z,9.47
2017-05-26T20:26:44.884Z,10.07
2017-05-26T20:29:13.393Z,11.03
2017-05-26T20:31:41.953Z,11.50
2017-05-26T20:34:10.467Z,7.12
2017-05-26T20:36:39.018Z,7.97
2017-05-26T20:39:07.525Z,8.52
2017-05-26T20:41:36.024Z,10.05
2017-05-26T20:44:04.557Z,9.10
2017-05-26T20:46:33.051Z,9.75
2017-05-26T20:49:01.599Z,10.27
2017-05-26T20:51:30.095Z,7.98
2017-05-26T20:53:58.600Z,8.28
2017-05-26T20:56:27.134Z,8.28
2017-05-26T20:58:55.666Z,8.80
2017-05-26T21:01:24.208Z,8.00
2017-05-26T21:03:52.712Z,9.38
2017-05-26T21:06:21.215Z,8.23
2017-05-26T21:08:49.745Z,8.77
2017-05-26T21:11:18.258Z,10.10
2017-05-26T21:13:46.800Z,9.20
2017-05-26T21:16:15.299Z,11.22
2017-05-26T21:18:43.803Z,10.13
2017-05-26T21:21:12.337Z,8.97
2017-05-26T21:23:40.834Z,10.35
2017-05-26T21:26:09.386Z,10.70
2017-05-26T21:28:37.900Z,10.15
2017-05-26T21:31:06.415Z,11.97
2017-05-26T21:33:34.948Z,9.15
2017-05-26T21:36:03.461Z,9.03
2017-05-26T21:38:32.003Z,9.37
2017-05-26T21:41:00.522Z,9.13
2017-05-26T21:43:29.072Z,10.75
2017-05-26T21:45:57.603Z,8.38
2017-05-26T21:48:26.106Z,9.50
2017-05-26T21:50:54.672Z,9.97
2017-05-26T21:53:23.197Z,10.42
2017-05-26T21:55:51.699Z,9.65
2017-05-26T21:58:20.231Z,7.75
2017-05-26T22:00:48.728Z,9.77
2017-05-26T22:03:16.504Z,10.88
2017-05-26T22:05:45.008Z,10.55
2017-05-26T22:08:14.525Z,12.97
2017-05-26T22:10:44.507Z,10.37
2017-05-26T22:13:13.028Z,10.27
2017-05-26T22:15:41.562Z,8.87
2017-05-26T22:18:10.074Z,12.85
2017-05-26T22:20:38.581Z,10.98
2017-05-26T22:23:06.351Z,12.05
2017-05-26T22:25:34.851Z,9.85
2017-05-26T22:28:03.382Z,10.58
2017-05-26T22:30:31.888Z,12.75
2017-05-26T22:33:00.387Z,11.05
2017-05-26T22:35:28.925Z,17.55
2017-05-26T22:37:57.432Z,12.25
2017-05-26T22:40:25.980Z,9.35
2017-05-26T22:42:54.476Z,10.13
2017-05-26T22:45:22.975Z,9.95
2017-05-26T22:47:51.517Z,10.08
2017-05-26T22:50:20.018Z,11.80
2017-05-26T22:52:48.563Z,10.72
2017-05-26T22:55:17.063Z,11.58
2017-05-26T22:57:45.568Z,9.92
2017-05-26T23:00:14.106Z,10.17
2017-05-26T23:02:42.610Z,10.00
2017-05-26T23:05:11.152Z,9.98
2017-05-26T23:07:39.653Z,10.87
2017-05-26T23:10:08.159Z,9.50
2017-05-26T23:12:36.696Z,11.30
2017-05-26T23:15:05.193Z,11.22
2017-05-26T23:17:33.734Z,14.72
2017-05-26T23:20:02.251Z,9.05
2017-05-26T23:22:30.755Z,11.73
2017-05-26T23:24:59.281Z,8.93
2017-05-26T23:27:27.784Z,8.48
2017-05-26T23:29:56.337Z,11.67
2017-05-26T23:32:24.845Z,10.08
2017-05-26T23:34:53.349Z,8.55
2017-05-26T23:37:21.896Z,10.10
2017-05-26T23:39:50.388Z,8.15
2017-05-26T23:42:18.921Z,9.47
2017-05-26T23:44:47.421Z,9.83
2017-05-26T23:47:15.917Z,9.90
2017-05-26T23:49:44.447Z,9.33
2017-05-26T23:52:12.958Z,8.05
2017-05-26T23:54:41.502Z,9.23
2017-05-26T23:57:10.009Z,7.45
2017-05-26T23:59:38.514Z,8.70
